sensor_id;sensor_type;location;lat;lon;timestamp;P1;durP1;ratioP1;P2;durP2;ratioP2
51190;SDS011;37253;48.736;9.294;2023-03-21T00:01:21;5.00;;;3.38;;
51190;SDS011;37253;48.736;9.294;2023-03-21T00:03:21;3.72;;;2.75;;
51190;SDS011;37253;48.736;9.294;2023-03-21T00:05:22;4.88;;;2.88;;
51190;SDS011;37253;48.736;9.294;2023-03-21T00:07:22;6.25;;;2.83;;
51190;SDS011;37253;48.736;9.294;2023-03-21T00:09:22;4.63;;;3.08;;
51190;SDS011;37253;48.736;9.294;2023-03-21T00:11:23;4.40;;;2.72;;
51190;SDS011;37253;48.736;9.294;2023-03-21T00:13:23;3.58;;;2.72;;
51190;SDS011;37253;48.736;9.294;2023-03-21T00:15:25;4.40;;;2.72;;
51190;SDS011;37253;48.736;9.294;2023-03-21T00:17:26;3.10;;;2.50;;
51190;SDS011;37253;48.736;9.294;2023-03-21T00:19:31;5.35;;;2.70;;
51190;SDS011;37253;48.736;9.294;2023-03-21T00:21:31;3.83;;;2.33;;
51190;SDS011;37253;48.736;9.294;2023-03-21T00:23:33;4.68;;;2.78;;
51190;SDS011;37253;48.736;9.294;2023-03-21T00:25:33;3.25;;;2.47;;
51190;SDS011;37253;48.736;9.294;2023-03-21T00:27:34;4.43;;;2.70;;
51190;SDS011;37253;48.736;9.294;2023-03-21T00:29:34;4.22;;;2.67;;
51190;SDS011;37253;48.736;9.294;2023-03-21T00:31:34;4.43;;;2.90;;
51190;SDS011;37253;48.736;9.294;2023-03-21T00:33:35;2.80;;;2.13;;
51190;SDS011;37253;48.736;9.294;2023-03-21T00:35:36;4.70;;;2.72;;
51190;SDS011;37253;48.736;9.294;2023-03-21T00:37:37;3.45;;;2.58;;
51190;SDS011;37253;48.736;9.294;2023-03-21T00:39:38;4.15;;;2.53;;
51190;SDS011;37253;48.736;9.294;2023-03-21T00:41:38;2.92;;;2.45;;
51190;SDS011;37253;48.736;9.294;2023-03-21T00:43:39;4.15;;;2.40;;
51190;SDS011;37253;48.736;9.294;2023-03-21T00:45:39;2.63;;;2.13;;
51190;SDS011;37253;48.736;9.294;2023-03-21T00:47:40;2.72;;;2.10;;
51190;SDS011;37253;48.736;9.294;2023-03-21T00:49:40;2.97;;;2.30;;
51190;SDS011;37253;48.736;9.294;2023-03-21T00:51:40;3.35;;;2.20;;
51190;SDS011;37253;48.736;9.294;2023-03-21T00:53:42;3.03;;;2.42;;
51190;SDS011;37253;48.736;9.294;2023-03-21T00:55:43;3.85;;;2.22;;
51190;SDS011;37253;48.736;9.294;2023-03-21T00:57:43;3.38;;;2.30;;
51190;SDS011;37253;48.736;9.294;2023-03-21T00:59:44;3.85;;;2.08;;
51190;SDS011;37253;48.736;9.294;2023-03-21T01:01:44;2.65;;;1.90;;
51190;SDS011;37253;48.736;9.294;2023-03-21T01:03:45;4.47;;;2.22;;
51190;SDS011;37253;48.736;9.294;2023-03-21T01:05:49;3.38;;;2.28;;
51190;SDS011;37253;48.736;9.294;2023-03-21T01:08:05;3.92;;;2.30;;
51190;SDS011;37253;48.736;9.294;2023-03-21T01:10:06;4.10;;;2.22;;
51190;SDS011;37253;48.736;9.294;2023-03-21T01:12:07;3.65;;;2.47;;
51190;SDS011;37253;48.736;9.294;2023-03-21T01:14:08;3.35;;;2.13;;
51190;SDS011;37253;48.736;9.294;2023-03-21T01:16:09;2.60;;;2.00;;
51190;SDS011;37253;48.736;9.294;2023-03-21T01:18:10;2.30;;;1.85;;
51190;SDS011;37253;48.736;9.294;2023-03-21T01:20:11;2.38;;;2.17;;
51190;SDS011;37253;48.736;9.294;2023-03-21T01:22:11;2.80;;;1.85;;
51190;SDS011;37253;48.736;9.294;2023-03-21T01:24:11;2.20;;;1.90;;
51190;SDS011;37253;48.736;9.294;2023-03-21T01:26:12;3.35;;;2.28;;
51190;SDS011;37253;48.736;9.294;2023-03-21T01:28:12;2.03;;;1.80;;
51190;SDS011;37253;48.736;9.294;2023-03-21T01:30:13;2.78;;;2.03;;
51190;SDS011;37253;48.736;9.294;2023-03-21T01:32:13;3.25;;;2.10;;
51190;SDS011;37253;48.736;9.294;2023-03-21T01:34:13;3.22;;;2.00;;
51190;SDS011;37253;48.736;9.294;2023-03-21T01:36:16;4.10;;;2.25;;
51190;SDS011;37253;48.736;9.294;2023-03-21T01:38:17;3.70;;;2.15;;
51190;SDS011;37253;48.736;9.294;2023-03-21T01:40:19;3.65;;;2.20;;
51190;SDS011;37253;48.736;9.294;2023-03-21T01:44:21;2.92;;;2.00;;
51190;SDS011;37253;48.736;9.294;2023-03-21T01:46:55;3.80;;;2.53;;
51190;SDS011;37253;48.736;9.294;2023-03-21T01:48:55;3.13;;;1.90;;
51190;SDS011;37253;48.736;9.294;2023-03-21T01:50:58;3.03;;;2.20;;
51190;SDS011;37253;48.736;9.294;2023-03-21T01:52:59;2.58;;;1.90;;
51190;SDS011;37253;48.736;9.294;2023-03-21T01:54:59;1.80;;;1.67;;
51190;SDS011;37253;48.736;9.294;2023-03-21T01:57:03;2.45;;;1.73;;
51190;SDS011;37253;48.736;9.294;2023-03-21T01:59:16;3.17;;;1.85;;
51190;SDS011;37253;48.736;9.294;2023-03-21T02:01:20;2.53;;;1.98;;
51190;SDS011;37253;48.736;9.294;2023-03-21T02:03:21;3.13;;;1.63;;
51190;SDS011;37253;48.736;9.294;2023-03-21T02:05:32;2.15;;;1.70;;
51190;SDS011;37253;48.736;9.294;2023-03-21T02:07:39;2.78;;;1.60;;
51190;SDS011;37253;48.736;9.294;2023-03-21T02:09:41;2.00;;;1.60;;
51190;SDS011;37253;48.736;9.294;2023-03-21T02:11:44;2.28;;;1.80;;
51190;SDS011;37253;48.736;9.294;2023-03-21T02:13:46;2.75;;;1.67;;
51190;SDS011;37253;48.736;9.294;2023-03-21T02:15:54;1.70;;;1.35;;
51190;SDS011;37253;48.736;9.294;2023-03-21T02:18:15;3.03;;;1.80;;
51190;SDS011;37253;48.736;9.294;2023-03-21T02:27:13;3.47;;;1.63;;
51190;SDS011;37253;48.736;9.294;2023-03-21T02:29:23;2.80;;;1.50;;
51190;SDS011;37253;48.736;9.294;2023-03-21T02:31:40;2.83;;;1.65;;
51190;SDS011;37253;48.736;9.294;2023-03-21T02:36:17;1.92;;;1.50;;
51190;SDS011;37253;48.736;9.294;2023-03-21T02:47:21;1.80;;;1.30;;
51190;SDS011;37253;48.736;9.294;2023-03-21T02:51:26;2.47;;;1.70;;
51190;SDS011;37253;48.736;9.294;2023-03-21T02:53:29;2.53;;;1.73;;
51190;SDS011;37253;48.736;9.294;2023-03-21T02:55:31;2.47;;;1.35;;
51190;SDS011;37253;48.736;9.294;2023-03-21T02:57:33;2.13;;;1.30;;
51190;SDS011;37253;48.736;9.294;2023-03-21T02:59:34;1.95;;;1.50;;
51190;SDS011;37253;48.736;9.294;2023-03-21T03:01:36;4.00;;;1.50;;
51190;SDS011;37253;48.736;9.294;2023-03-21T03:03:36;2.40;;;1.50;;
51190;SDS011;37253;48.736;9.294;2023-03-21T03:05:46;2.60;;;1.40;;
51190;SDS011;37253;48.736;9.294;2023-03-21T03:12:26;1.70;;;1.35;;
51190;SDS011;37253;48.736;9.294;2023-03-21T03:19:25;1.48;;;1.20;;
51190;SDS011;37253;48.736;9.294;2023-03-21T03:26:07;2.20;;;1.58;;
51190;SDS011;37253;48.736;9.294;2023-03-21T03:28:11;1.95;;;1.27;;
51190;SDS011;37253;48.736;9.294;2023-03-21T03:30:13;1.15;;;1.05;;
51190;SDS011;37253;48.736;9.294;2023-03-21T03:32:18;2.80;;;1.40;;
51190;SDS011;37253;48.736;9.294;2023-03-21T03:34:23;1.65;;;1.50;;
51190;SDS011;37253;48.736;9.294;2023-03-21T03:36:27;4.10;;;1.42;;
51190;SDS011;37253;48.736;9.294;2023-03-21T03:38:29;1.45;;;1.23;;
51190;SDS011;37253;48.736;9.294;2023-03-21T03:40:35;2.30;;;1.40;;
51190;SDS011;37253;48.736;9.294;2023-03-21T03:42:40;1.95;;;1.45;;
51190;SDS011;37253;48.736;9.294;2023-03-21T03:44:44;2.75;;;1.42;;
51190;SDS011;37253;48.736;9.294;2023-03-21T03:46:50;4.13;;;1.42;;
51190;SDS011;37253;48.736;9.294;2023-03-21T03:49:04;2.83;;;1.13;;
51190;SDS011;37253;48.736;9.294;2023-03-21T03:51:24;2.10;;;1.27;;
51190;SDS011;37253;48.736;9.294;2023-03-21T03:53:40;2.08;;;1.40;;
51190;SDS011;37253;48.736;9.294;2023-03-21T03:55:43;2.63;;;1.42;;
51190;SDS011;37253;48.736;9.294;2023-03-21T03:57:44;1.42;;;1.30;;
51190;SDS011;37253;48.736;9.294;2023-03-21T03:59:44;2.30;;;1.20;;
51190;SDS011;37253;48.736;9.294;2023-03-21T04:01:45;1.42;;;1.23;;
51190;SDS011;37253;48.736;9.294;2023-03-21T04:03:46;5.70;;;1.73;;
51190;SDS011;37253;48.736;9.294;2023-03-21T04:05:48;1.85;;;1.23;;
51190;SDS011;37253;48.736;9.294;2023-03-21T04:07:49;1.45;;;1.10;;
51190;SDS011;37253;48.736;9.294;2023-03-21T04:09:49;1.65;;;1.13;;
51190;SDS011;37253;48.736;9.294;2023-03-21T04:11:50;1.30;;;1.10;;
51190;SDS011;37253;48.736;9.294;2023-03-21T04:13:51;1.58;;;1.25;;
51190;SDS011;37253;48.736;9.294;2023-03-21T04:15:51;2.55;;;1.50;;
51190;SDS011;37253;48.736;9.294;2023-03-21T04:17:51;1.48;;;1.30;;
51190;SDS011;37253;48.736;9.294;2023-03-21T04:19:52;1.55;;;1.25;;
51190;SDS011;37253;48.736;9.294;2023-03-21T04:21:52;2.95;;;1.40;;
51190;SDS011;37253;48.736;9.294;2023-03-21T04:23:52;1.77;;;1.20;;
51190;SDS011;37253;48.736;9.294;2023-03-21T04:25:53;3.13;;;1.33;;
51190;SDS011;37253;48.736;9.294;2023-03-21T04:27:54;4.97;;;1.17;;
51190;SDS011;37253;48.736;9.294;2023-03-21T04:29:54;1.75;;;1.27;;
51190;SDS011;37253;48.736;9.294;2023-03-21T04:31:55;1.40;;;1.10;;
51190;SDS011;37253;48.736;9.294;2023-03-21T04:33:56;1.40;;;1.23;;
51190;SDS011;37253;48.736;9.294;2023-03-21T04:35:57;2.58;;;1.40;;
51190;SDS011;37253;48.736;9.294;2023-03-21T04:38:00;2.83;;;1.30;;
51190;SDS011;37253;48.736;9.294;2023-03-21T04:40:01;2.65;;;1.23;;
51190;SDS011;37253;48.736;9.294;2023-03-21T04:42:05;1.25;;;1.10;;
51190;SDS011;37253;48.736;9.294;2023-03-21T04:44:06;1.50;;;1.00;;
51190;SDS011;37253;48.736;9.294;2023-03-21T04:46:06;1.40;;;1.23;;
51190;SDS011;37253;48.736;9.294;2023-03-21T04:48:06;1.58;;;1.30;;
51190;SDS011;37253;48.736;9.294;2023-03-21T04:50:07;1.42;;;1.10;;
51190;SDS011;37253;48.736;9.294;2023-03-21T04:52:09;2.45;;;1.15;;
51190;SDS011;37253;48.736;9.294;2023-03-21T04:54:09;1.13;;;1.02;;
51190;SDS011;37253;48.736;9.294;2023-03-21T04:56:12;4.47;;;1.20;;
51190;SDS011;37253;48.736;9.294;2023-03-21T04:58:13;1.63;;;1.20;;
51190;SDS011;37253;48.736;9.294;2023-03-21T05:00:13;3.00;;;1.45;;
51190;SDS011;37253;48.736;9.294;2023-03-21T05:02:14;2.03;;;1.20;;
51190;SDS011;37253;48.736;9.294;2023-03-21T05:04:15;1.75;;;1.13;;
51190;SDS011;37253;48.736;9.294;2023-03-21T05:06:15;1.25;;;0.90;;
51190;SDS011;37253;48.736;9.294;2023-03-21T05:08:16;1.88;;;1.20;;
51190;SDS011;37253;48.736;9.294;2023-03-21T05:10:16;1.83;;;1.17;;
51190;SDS011;37253;48.736;9.294;2023-03-21T05:12:16;1.33;;;1.23;;
51190;SDS011;37253;48.736;9.294;2023-03-21T05:14:19;2.08;;;1.30;;
51190;SDS011;37253;48.736;9.294;2023-03-21T05:16:21;1.23;;;1.08;;
51190;SDS011;37253;48.736;9.294;2023-03-21T05:18:25;1.10;;;1.00;;
51190;SDS011;37253;48.736;9.294;2023-03-21T05:20:26;3.65;;;1.27;;
51190;SDS011;37253;48.736;9.294;2023-03-21T05:22:26;1.33;;;1.20;;
51190;SDS011;37253;48.736;9.294;2023-03-21T05:24:27;1.17;;;1.00;;
51190;SDS011;37253;48.736;9.294;2023-03-21T05:26:28;1.70;;;1.10;;
51190;SDS011;37253;48.736;9.294;2023-03-21T05:28:28;1.75;;;1.20;;
51190;SDS011;37253;48.736;9.294;2023-03-21T05:30:30;1.80;;;1.23;;
51190;SDS011;37253;48.736;9.294;2023-03-21T05:32:31;1.60;;;1.17;;
51190;SDS011;37253;48.736;9.294;2023-03-21T05:34:31;1.30;;;1.20;;
51190;SDS011;37253;48.736;9.294;2023-03-21T05:36:32;1.23;;;1.00;;
51190;SDS011;37253;48.736;9.294;2023-03-21T05:38:34;3.63;;;1.35;;
51190;SDS011;37253;48.736;9.294;2023-03-21T05:40:35;2.10;;;1.17;;
51190;SDS011;37253;48.736;9.294;2023-03-21T05:42:35;2.25;;;1.30;;
51190;SDS011;37253;48.736;9.294;2023-03-21T05:44:36;2.10;;;1.10;;
51190;SDS011;37253;48.736;9.294;2023-03-21T05:46:36;7.95;;;1.30;;
51190;SDS011;37253;48.736;9.294;2023-03-21T05:48:37;3.10;;;1.20;;
51190;SDS011;37253;48.736;9.294;2023-03-21T05:50:37;5.43;;;1.23;;
51190;SDS011;37253;48.736;9.294;2023-03-21T05:52:38;1.38;;;1.10;;
51190;SDS011;37253;48.736;9.294;2023-03-21T05:54:39;4.30;;;1.40;;
51190;SDS011;37253;48.736;9.294;2023-03-21T05:56:39;3.22;;;1.15;;
51190;SDS011;37253;48.736;9.294;2023-03-21T05:58:39;3.92;;;1.23;;
51190;SDS011;37253;48.736;9.294;2023-03-21T06:00:40;1.42;;;1.05;;
51190;SDS011;37253;48.736;9.294;2023-03-21T06:02:40;4.05;;;1.15;;
51190;SDS011;37253;48.736;9.294;2023-03-21T06:04:41;3.80;;;1.20;;
51190;SDS011;37253;48.736;9.294;2023-03-21T06:06:41;4.93;;;1.17;;
51190;SDS011;37253;48.736;9.294;2023-03-21T06:08:41;1.75;;;1.30;;
51190;SDS011;37253;48.736;9.294;2023-03-21T06:10:42;1.90;;;1.00;;
51190;SDS011;37253;48.736;9.294;2023-03-21T06:12:42;4.28;;;1.27;;
51190;SDS011;37253;48.736;9.294;2023-03-21T06:14:42;4.35;;;1.40;;
51190;SDS011;37253;48.736;9.294;2023-03-21T06:16:43;2.35;;;1.10;;
51190;SDS011;37253;48.736;9.294;2023-03-21T06:18:44;2.80;;;1.20;;
51190;SDS011;37253;48.736;9.294;2023-03-21T06:20:44;4.00;;;1.08;;
51190;SDS011;37253;48.736;9.294;2023-03-21T06:22:45;2.35;;;1.05;;
51190;SDS011;37253;48.736;9.294;2023-03-21T06:24:45;4.03;;;1.20;;
51190;SDS011;37253;48.736;9.294;2023-03-21T06:26:45;1.98;;;1.15;;
51190;SDS011;37253;48.736;9.294;2023-03-21T06:28:47;1.95;;;1.30;;
51190;SDS011;37253;48.736;9.294;2023-03-21T06:30:48;3.33;;;1.10;;
51190;SDS011;37253;48.736;9.294;2023-03-21T06:32:49;3.97;;;1.30;;
51190;SDS011;37253;48.736;9.294;2023-03-21T06:34:49;2.33;;;1.20;;
51190;SDS011;37253;48.736;9.294;2023-03-21T06:36:49;3.92;;;1.20;;
51190;SDS011;37253;48.736;9.294;2023-03-21T06:38:51;3.47;;;1.30;;
51190;SDS011;37253;48.736;9.294;2023-03-21T06:40:51;3.60;;;1.10;;
51190;SDS011;37253;48.736;9.294;2023-03-21T06:42:51;3.15;;;1.40;;
51190;SDS011;37253;48.736;9.294;2023-03-21T06:44:52;1.13;;;1.02;;
51190;SDS011;37253;48.736;9.294;2023-03-21T06:46:52;3.15;;;1.30;;
51190;SDS011;37253;48.736;9.294;2023-03-21T06:48:52;2.80;;;1.30;;
51190;SDS011;37253;48.736;9.294;2023-03-21T06:50:53;3.33;;;1.20;;
51190;SDS011;37253;48.736;9.294;2023-03-21T06:52:53;4.47;;;1.10;;
51190;SDS011;37253;48.736;9.294;2023-03-21T06:54:56;2.85;;;1.15;;
51190;SDS011;37253;48.736;9.294;2023-03-21T06:56:56;1.92;;;1.23;;
51190;SDS011;37253;48.736;9.294;2023-03-21T06:58:57;5.40;;;1.58;;
51190;SDS011;37253;48.736;9.294;2023-03-21T07:00:58;3.95;;;1.15;;
51190;SDS011;37253;48.736;9.294;2023-03-21T07:02:58;2.33;;;1.20;;
51190;SDS011;37253;48.736;9.294;2023-03-21T07:05:00;4.28;;;1.20;;
51190;SDS011;37253;48.736;9.294;2023-03-21T07:07:01;2.47;;;1.05;;
51190;SDS011;37253;48.736;9.294;2023-03-21T07:09:01;4.10;;;1.35;;
51190;SDS011;37253;48.736;9.294;2023-03-21T07:11:03;2.05;;;1.15;;
51190;SDS011;37253;48.736;9.294;2023-03-21T07:13:03;7.80;;;1.13;;
51190;SDS011;37253;48.736;9.294;2023-03-21T07:15:04;4.53;;;1.13;;
51190;SDS011;37253;48.736;9.294;2023-03-21T07:17:06;5.25;;;1.52;;
51190;SDS011;37253;48.736;9.294;2023-03-21T07:19:06;5.10;;;1.20;;
51190;SDS011;37253;48.736;9.294;2023-03-21T07:21:07;2.85;;;1.50;;
51190;SDS011;37253;48.736;9.294;2023-03-21T07:23:07;7.10;;;1.30;;
51190;SDS011;37253;48.736;9.294;2023-03-21T07:25:08;6.70;;;1.55;;
51190;SDS011;37253;48.736;9.294;2023-03-21T07:27:09;5.13;;;1.60;;
51190;SDS011;37253;48.736;9.294;2023-03-21T07:29:09;3.85;;;1.23;;
51190;SDS011;37253;48.736;9.294;2023-03-21T07:31:14;5.10;;;1.65;;
51190;SDS011;37253;48.736;9.294;2023-03-21T07:33:15;4.13;;;1.50;;
51190;SDS011;37253;48.736;9.294;2023-03-21T07:35:16;4.57;;;1.60;;
51190;SDS011;37253;48.736;9.294;2023-03-21T07:37:16;3.70;;;1.50;;
51190;SDS011;37253;48.736;9.294;2023-03-21T07:39:17;4.07;;;1.30;;
51190;SDS011;37253;48.736;9.294;2023-03-21T07:41:19;8.48;;;1.58;;
51190;SDS011;37253;48.736;9.294;2023-03-21T07:43:19;10.57;;;1.70;;
51190;SDS011;37253;48.736;9.294;2023-03-21T07:45:20;9.30;;;1.92;;
51190;SDS011;37253;48.736;9.294;2023-03-21T07:47:22;3.47;;;1.80;;
51190;SDS011;37253;48.736;9.294;2023-03-21T07:49:22;3.75;;;1.48;;
51190;SDS011;37253;48.736;9.294;2023-03-21T07:51:23;3.78;;;1.70;;
51190;SDS011;37253;48.736;9.294;2023-03-21T07:53:23;6.05;;;1.70;;
51190;SDS011;37253;48.736;9.294;2023-03-21T07:55:24;4.93;;;1.63;;
51190;SDS011;37253;48.736;9.294;2023-03-21T07:57:24;5.28;;;1.70;;
51190;SDS011;37253;48.736;9.294;2023-03-21T07:59:25;6.03;;;1.90;;
51190;SDS011;37253;48.736;9.294;2023-03-21T08:01:25;18.42;;;2.03;;
51190;SDS011;37253;48.736;9.294;2023-03-21T08:03:25;10.63;;;1.77;;
51190;SDS011;37253;48.736;9.294;2023-03-21T08:05:35;11.77;;;1.85;;
51190;SDS011;37253;48.736;9.294;2023-03-21T08:07:36;6.50;;;1.75;;
51190;SDS011;37253;48.736;9.294;2023-03-21T08:09:36;12.57;;;1.88;;
51190;SDS011;37253;48.736;9.294;2023-03-21T08:11:36;4.25;;;1.63;;
51190;SDS011;37253;48.736;9.294;2023-03-21T08:13:37;6.85;;;1.60;;
51190;SDS011;37253;48.736;9.294;2023-03-21T08:15:38;4.50;;;1.70;;
51190;SDS011;37253;48.736;9.294;2023-03-21T08:17:41;3.90;;;1.70;;
51190;SDS011;37253;48.736;9.294;2023-03-21T08:21:44;8.40;;;1.75;;
51190;SDS011;37253;48.736;9.294;2023-03-21T08:23:45;5.53;;;1.98;;
51190;SDS011;37253;48.736;9.294;2023-03-21T08:25:46;6.20;;;1.40;;
51190;SDS011;37253;48.736;9.294;2023-03-21T08:27:50;9.07;;;2.13;;
51190;SDS011;37253;48.736;9.294;2023-03-21T08:29:51;4.32;;;1.50;;
51190;SDS011;37253;48.736;9.294;2023-03-21T08:31:52;4.57;;;1.65;;
51190;SDS011;37253;48.736;9.294;2023-03-21T08:33:52;3.85;;;1.60;;
51190;SDS011;37253;48.736;9.294;2023-03-21T08:35:54;3.20;;;1.60;;
51190;SDS011;37253;48.736;9.294;2023-03-21T08:38:00;5.25;;;1.90;;
51190;SDS011;37253;48.736;9.294;2023-03-21T08:40:02;6.07;;;2.03;;
51190;SDS011;37253;48.736;9.294;2023-03-21T08:42:06;5.72;;;1.75;;
51190;SDS011;37253;48.736;9.294;2023-03-21T08:44:06;7.00;;;1.50;;
51190;SDS011;37253;48.736;9.294;2023-03-21T08:46:06;4.10;;;1.38;;
51190;SDS011;37253;48.736;9.294;2023-03-21T08:48:07;7.40;;;1.65;;
51190;SDS011;37253;48.736;9.294;2023-03-21T08:50:07;5.30;;;1.58;;
51190;SDS011;37253;48.736;9.294;2023-03-21T08:54:20;3.65;;;1.30;;
51190;SDS011;37253;48.736;9.294;2023-03-21T08:56:21;6.03;;;2.00;;
51190;SDS011;37253;48.736;9.294;2023-03-21T08:58:21;2.17;;;1.30;;
51190;SDS011;37253;48.736;9.294;2023-03-21T09:00:21;5.20;;;1.60;;
51190;SDS011;37253;48.736;9.294;2023-03-21T09:02:22;6.18;;;1.73;;
51190;SDS011;37253;48.736;9.294;2023-03-21T09:04:22;7.07;;;1.60;;
51190;SDS011;37253;48.736;9.294;2023-03-21T09:06:24;3.03;;;1.42;;
51190;SDS011;37253;48.736;9.294;2023-03-21T09:08:26;4.40;;;1.42;;
51190;SDS011;37253;48.736;9.294;2023-03-21T09:10:26;3.38;;;1.60;;
51190;SDS011;37253;48.736;9.294;2023-03-21T09:12:27;3.55;;;1.67;;
51190;SDS011;37253;48.736;9.294;2023-03-21T09:14:27;3.00;;;1.50;;
51190;SDS011;37253;48.736;9.294;2023-03-21T09:16:27;3.83;;;1.42;;
51190;SDS011;37253;48.736;9.294;2023-03-21T09:18:28;4.60;;;1.40;;
51190;SDS011;37253;48.736;9.294;2023-03-21T09:20:44;4.25;;;1.50;;
51190;SDS011;37253;48.736;9.294;2023-03-21T09:22:46;3.40;;;1.50;;
51190;SDS011;37253;48.736;9.294;2023-03-21T09:24:47;3.58;;;1.58;;
51190;SDS011;37253;48.736;9.294;2023-03-21T09:26:48;3.20;;;1.23;;
51190;SDS011;37253;48.736;9.294;2023-03-21T09:28:50;7.60;;;1.60;;
51190;SDS011;37253;48.736;9.294;2023-03-21T09:30:52;3.90;;;1.50;;
51190;SDS011;37253;48.736;9.294;2023-03-21T09:32:54;2.58;;;1.40;;
51190;SDS011;37253;48.736;9.294;2023-03-21T09:34:54;3.40;;;1.40;;
51190;SDS011;37253;48.736;9.294;2023-03-21T09:36:56;1.77;;;1.23;;
51190;SDS011;37253;48.736;9.294;2023-03-21T09:38:56;6.95;;;1.50;;
51190;SDS011;37253;48.736;9.294;2023-03-21T09:45:34;4.13;;;1.27;;
51190;SDS011;37253;48.736;9.294;2023-03-21T09:47:41;2.53;;;1.27;;
51190;SDS011;37253;48.736;9.294;2023-03-21T09:49:58;2.50;;;1.33;;
51190;SDS011;37253;48.736;9.294;2023-03-21T09:52:09;3.83;;;1.23;;
51190;SDS011;37253;48.736;9.294;2023-03-21T09:54:16;2.25;;;1.23;;
51190;SDS011;37253;48.736;9.294;2023-03-21T09:56:27;2.53;;;1.23;;
51190;SDS011;37253;48.736;9.294;2023-03-21T09:58:34;2.13;;;1.05;;
51190;SDS011;37253;48.736;9.294;2023-03-21T10:00:39;2.25;;;1.17;;
51190;SDS011;37253;48.736;9.294;2023-03-21T10:02:45;2.95;;;1.20;;
51190;SDS011;37253;48.736;9.294;2023-03-21T10:04:48;1.88;;;1.10;;
51190;SDS011;37253;48.736;9.294;2023-03-21T10:06:58;1.60;;;1.20;;
51190;SDS011;37253;48.736;9.294;2023-03-21T10:09:02;2.47;;;1.13;;
51190;SDS011;37253;48.736;9.294;2023-03-21T10:11:18;2.13;;;1.00;;
51190;SDS011;37253;48.736;9.294;2023-03-21T10:13:28;1.92;;;1.30;;
51190;SDS011;37253;48.736;9.294;2023-03-21T10:15:32;2.67;;;1.42;;
51190;SDS011;37253;48.736;9.294;2023-03-21T10:17:36;4.07;;;1.00;;
51190;SDS011;37253;48.736;9.294;2023-03-21T10:19:40;1.75;;;1.13;;
51190;SDS011;37253;48.736;9.294;2023-03-21T10:21:46;2.17;;;1.20;;
51190;SDS011;37253;48.736;9.294;2023-03-21T10:23:48;3.87;;;1.30;;
51190;SDS011;37253;48.736;9.294;2023-03-21T10:25:52;2.78;;;1.00;;
51190;SDS011;37253;48.736;9.294;2023-03-21T10:27:55;1.90;;;1.00;;
51190;SDS011;37253;48.736;9.294;2023-03-21T10:29:55;4.38;;;1.20;;
51190;SDS011;37253;48.736;9.294;2023-03-21T10:31:56;3.75;;;1.20;;
51190;SDS011;37253;48.736;9.294;2023-03-21T10:33:59;4.25;;;1.15;;
51190;SDS011;37253;48.736;9.294;2023-03-21T10:36:10;3.13;;;1.30;;
51190;SDS011;37253;48.736;9.294;2023-03-21T10:38:14;1.48;;;1.05;;
51190;SDS011;37253;48.736;9.294;2023-03-21T10:40:16;2.85;;;1.00;;
51190;SDS011;37253;48.736;9.294;2023-03-21T10:42:24;1.80;;;0.90;;
51190;SDS011;37253;48.736;9.294;2023-03-21T10:44:30;1.90;;;1.00;;
51190;SDS011;37253;48.736;9.294;2023-03-21T10:46:32;1.55;;;0.90;;
51190;SDS011;37253;48.736;9.294;2023-03-21T10:48:34;1.98;;;1.10;;
51190;SDS011;37253;48.736;9.294;2023-03-21T10:50:35;2.80;;;1.20;;
51190;SDS011;37253;48.736;9.294;2023-03-21T10:52:37;1.60;;;1.00;;
51190;SDS011;37253;48.736;9.294;2023-03-21T10:54:41;1.50;;;1.00;;
51190;SDS011;37253;48.736;9.294;2023-03-21T10:56:43;3.20;;;1.30;;
51190;SDS011;37253;48.736;9.294;2023-03-21T11:00:46;4.72;;;1.08;;
51190;SDS011;37253;48.736;9.294;2023-03-21T11:02:47;1.15;;;0.82;;
51190;SDS011;37253;48.736;9.294;2023-03-21T11:04:48;1.73;;;0.93;;
51190;SDS011;37253;48.736;9.294;2023-03-21T11:06:50;1.60;;;0.98;;
51190;SDS011;37253;48.736;9.294;2023-03-21T11:08:57;1.48;;;0.90;;
51190;SDS011;37253;48.736;9.294;2023-03-21T11:11:06;2.05;;;1.00;;
51190;SDS011;37253;48.736;9.294;2023-03-21T11:13:16;3.42;;;0.80;;
51190;SDS011;37253;48.736;9.294;2023-03-21T11:15:31;2.30;;;1.00;;
51190;SDS011;37253;48.736;9.294;2023-03-21T11:17:46;2.80;;;1.00;;
51190;SDS011;37253;48.736;9.294;2023-03-21T11:19:56;1.13;;;0.90;;
51190;SDS011;37253;48.736;9.294;2023-03-21T11:21:57;2.45;;;1.00;;
51190;SDS011;37253;48.736;9.294;2023-03-21T11:23:58;1.77;;;0.98;;
51190;SDS011;37253;48.736;9.294;2023-03-21T11:25:59;1.90;;;1.08;;
51190;SDS011;37253;48.736;9.294;2023-03-21T11:28:04;1.25;;;0.90;;
51190;SDS011;37253;48.736;9.294;2023-03-21T11:30:06;2.03;;;1.02;;
51190;SDS011;37253;48.736;9.294;2023-03-21T11:32:24;1.20;;;0.98;;
51190;SDS011;37253;48.736;9.294;2023-03-21T11:34:32;2.25;;;1.00;;
51190;SDS011;37253;48.736;9.294;2023-03-21T11:36:37;1.17;;;0.80;;
51190;SDS011;37253;48.736;9.294;2023-03-21T11:38:38;1.85;;;0.90;;
51190;SDS011;37253;48.736;9.294;2023-03-21T11:40:39;2.55;;;0.88;;
51190;SDS011;37253;48.736;9.294;2023-03-21T11:42:53;1.52;;;1.00;;
51190;SDS011;37253;48.736;9.294;2023-03-21T11:44:59;1.55;;;0.82;;
51190;SDS011;37253;48.736;9.294;2023-03-21T11:47:02;1.63;;;1.00;;
51190;SDS011;37253;48.736;9.294;2023-03-21T11:49:02;1.30;;;0.80;;
51190;SDS011;37253;48.736;9.294;2023-03-21T11:51:05;1.25;;;0.90;;
51190;SDS011;37253;48.736;9.294;2023-03-21T11:55:31;0.85;;;0.80;;
51190;SDS011;37253;48.736;9.294;2023-03-21T11:59:46;3.10;;;0.90;;
51190;SDS011;37253;48.736;9.294;2023-03-21T12:04:39;1.42;;;0.63;;
51190;SDS011;37253;48.736;9.294;2023-03-21T12:13:43;1.23;;;0.80;;
51190;SDS011;37253;48.736;9.294;2023-03-21T12:18:25;1.10;;;0.75;;
51190;SDS011;37253;48.736;9.294;2023-03-21T12:20:42;1.40;;;0.70;;
51190;SDS011;37253;48.736;9.294;2023-03-21T12:24:56;1.27;;;0.80;;
51190;SDS011;37253;48.736;9.294;2023-03-21T12:33:51;1.63;;;0.68;;
51190;SDS011;37253;48.736;9.294;2023-03-21T12:42:53;1.00;;;0.80;;
51190;SDS011;37253;48.736;9.294;2023-03-21T12:45:02;1.45;;;0.80;;
51190;SDS011;37253;48.736;9.294;2023-03-21T12:47:09;0.90;;;0.70;;
51190;SDS011;37253;48.736;9.294;2023-03-21T12:51:43;1.13;;;0.70;;
51190;SDS011;37253;48.736;9.294;2023-03-21T12:53:48;1.35;;;0.90;;
51190;SDS011;37253;48.736;9.294;2023-03-21T12:55:52;1.45;;;0.65;;
51190;SDS011;37253;48.736;9.294;2023-03-21T12:57:57;1.10;;;0.60;;
51190;SDS011;37253;48.736;9.294;2023-03-21T13:00:15;1.05;;;0.60;;
51190;SDS011;37253;48.736;9.294;2023-03-21T13:06:34;0.63;;;0.50;;
51190;SDS011;37253;48.736;9.294;2023-03-21T13:08:37;2.33;;;0.70;;
51190;SDS011;37253;48.736;9.294;2023-03-21T13:10:41;0.70;;;0.60;;
51190;SDS011;37253;48.736;9.294;2023-03-21T13:12:47;1.08;;;0.70;;
51190;SDS011;37253;48.736;9.294;2023-03-21T13:17:25;0.80;;;0.70;;
51190;SDS011;37253;48.736;9.294;2023-03-21T13:22:27;1.00;;;0.70;;
51190;SDS011;37253;48.736;9.294;2023-03-21T13:24:49;0.63;;;0.50;;
51190;SDS011;37253;48.736;9.294;2023-03-21T13:26:48;0.70;;;0.65;;
51190;SDS011;37253;48.736;9.294;2023-03-21T13:28:59;0.77;;;0.60;;
51190;SDS011;37253;48.736;9.294;2023-03-21T13:31:19;1.25;;;0.60;;
51190;SDS011;37253;48.736;9.294;2023-03-21T13:33:27;0.60;;;0.60;;
51190;SDS011;37253;48.736;9.294;2023-03-21T13:35:35;1.02;;;0.60;;
51190;SDS011;37253;48.736;9.294;2023-03-21T13:37:38;2.45;;;0.60;;
51190;SDS011;37253;48.736;9.294;2023-03-21T13:39:42;0.88;;;0.60;;
51190;SDS011;37253;48.736;9.294;2023-03-21T13:41:44;1.30;;;0.70;;
51190;SDS011;37253;48.736;9.294;2023-03-21T13:48:29;0.80;;;0.60;;
51190;SDS011;37253;48.736;9.294;2023-03-21T13:50:49;1.17;;;0.60;;
51190;SDS011;37253;48.736;9.294;2023-03-21T13:55:14;1.23;;;0.70;;
51190;SDS011;37253;48.736;9.294;2023-03-21T13:59:42;0.77;;;0.47;;
51190;SDS011;37253;48.736;9.294;2023-03-21T14:06:18;1.52;;;0.52;;
51190;SDS011;37253;48.736;9.294;2023-03-21T14:08:18;1.17;;;0.60;;